createdAt,value
2023-05-14T00:00:44.499Z,247.60
2023-05-14T00:01:44.492Z,248.78
2023-05-14T00:02:44.549Z,244.60
2023-05-14T00:03:44.538Z,241.61
2023-05-14T00:04:44.577Z,240.44
2023-05-14T00:05:44.470Z,240.01
2023-05-14T00:06:44.461Z,239.94
2023-05-14T00:07:44.432Z,237.07
2023-05-14T00:08:44.426Z,233.92
2023-05-14T00:09:44.424Z,232.12
2023-05-14T00:10:44.428Z,228.96
2023-05-14T00:11:44.413Z,229.94
2023-05-14T00:12:44.417Z,227.86
2023-05-14T00:13:44.416Z,229.31
2023-05-14T00:14:44.408Z,229.77
2023-05-14T00:15:44.431Z,231.56
2023-05-14T00:16:44.409Z,229.21
2023-05-14T00:17:44.400Z,230.43
2023-05-14T00:18:44.442Z,228.69
2023-05-14T00:19:44.349Z,229.45
2023-05-14T00:20:44.475Z,230.44
2023-05-14T00:21:44.329Z,232.00
2023-05-14T00:22:44.336Z,232.99
2023-05-14T00:23:44.326Z,233.62
2023-05-14T00:24:44.304Z,232.83
2023-05-14T00:25:44.322Z,230.18
2023-05-14T00:26:44.294Z,235.46
2023-05-14T00:27:44.299Z,235.35
2023-05-14T00:28:44.317Z,235.45
2023-05-14T00:29:44.346Z,235.26
2023-05-14T00:30:44.369Z,237.33
2023-05-14T00:31:44.463Z,238.67
2023-05-14T00:32:44.476Z,235.08
2023-05-14T00:33:44.487Z,234.68
2023-05-14T00:34:44.530Z,232.72
2023-05-14T00:35:44.562Z,229.69
2023-05-14T00:36:44.564Z,230.33
2023-05-14T00:37:44.610Z,228.43
2023-05-14T00:38:44.633Z,228.01
2023-05-14T00:39:44.655Z,225.13
2023-05-14T00:40:44.698Z,223.18
2023-05-14T00:41:44.700Z,222.11
2023-05-14T00:42:44.721Z,223.39
2023-05-14T00:43:44.770Z,221.88
2023-05-14T00:44:44.815Z,219.73
2023-05-14T00:45:44.829Z,223.00
2023-05-14T00:46:44.883Z,221.93
2023-05-14T00:47:44.917Z,224.09
2023-05-14T00:48:44.930Z,222.26
2023-05-14T00:49:44.946Z,224.69
2023-05-14T00:50:44.973Z,224.81
2023-05-14T00:51:45.003Z,225.24
2023-05-14T00:52:45.033Z,225.51
2023-05-14T00:53:45.041Z,227.54
2023-05-14T00:54:45.086Z,226.36
2023-05-14T00:55:45.075Z,229.40
2023-05-14T00:56:45.109Z,225.68
2023-05-14T00:57:45.140Z,224.33
2023-05-14T00:58:45.193Z,222.67
2023-05-14T00:59:45.246Z,224.21
2023-05-14T01:00:45.303Z,222.00
2023-05-14T01:01:45.271Z,220.91
2023-05-14T01:02:45.366Z,220.15
2023-05-14T01:03:45.481Z,218.47
2023-05-14T01:04:45.357Z,219.18
2023-05-14T01:05:45.403Z,215.19
2023-05-14T01:06:45.438Z,217.80
2023-05-14T01:07:45.477Z,217.24
2023-05-14T01:08:45.533Z,219.96
2023-05-14T01:09:45.542Z,217.42
2023-05-14T01:10:45.574Z,218.92
2023-05-14T01:11:45.623Z,218.09
2023-05-14T01:12:45.642Z,215.09
2023-05-14T01:13:45.707Z,215.58
2023-05-14T01:14:45.734Z,218.40
2023-05-14T01:15:45.739Z,219.03
2023-05-14T01:16:45.844Z,222.20
2023-05-14T01:17:45.821Z,221.15
2023-05-14T01:18:45.889Z,219.33
2023-05-14T01:19:45.873Z,219.35
2023-05-14T01:20:45.911Z,221.51
2023-05-14T01:21:45.934Z,222.17
2023-05-14T01:22:45.985Z,220.89
2023-05-14T01:23:46.019Z,222.33
2023-05-14T01:24:46.057Z,221.20
2023-05-14T01:25:46.088Z,223.14
2023-05-14T01:26:46.120Z,223.46
2023-05-14T01:27:46.153Z,222.91
2023-05-14T01:28:46.203Z,224.40
2023-05-14T01:29:46.239Z,224.04
2023-05-14T01:30:46.255Z,223.93
2023-05-14T01:31:46.336Z,226.33
2023-05-14T01:32:46.406Z,226.45
2023-05-14T01:33:46.381Z,225.87
2023-05-14T01:34:46.401Z,226.90
2023-05-14T01:35:46.460Z,227.43
2023-05-14T01:36:46.536Z,225.99
2023-05-14T01:37:46.533Z,227.66
2023-05-14T01:38:46.530Z,226.51
2023-05-14T01:39:46.593Z,227.31
2023-05-14T01:40:46.692Z,226.55
2023-05-14T01:41:46.636Z,225.60
2023-05-14T01:42:46.670Z,226.30
2023-05-14T01:43:46.716Z,225.65
2023-05-14T01:44:46.743Z,230.98
2023-05-14T01:45:46.883Z,231.20
2023-05-14T01:46:46.820Z,230.44
2023-05-14T01:47:46.905Z,230.48
2023-05-14T01:48:46.876Z,232.33
2023-05-14T01:49:46.916Z,227.46
2023-05-14T01:50:46.922Z,230.44
2023-05-14T01:51:46.956Z,229.73
2023-05-14T01:52:47.009Z,230.47
2023-05-14T01:53:47.037Z,228.90
2023-05-14T01:54:47.101Z,231.58
2023-05-14T01:55:47.139Z,230.66
2023-05-14T01:56:47.195Z,230.72
2023-05-14T01:57:47.287Z,227.05
2023-05-14T01:58:47.266Z,227.95
2023-05-14T01:59:47.356Z,227.48
2023-05-14T02:00:47.362Z,226.91
2023-05-14T02:01:47.420Z,226.57
2023-05-14T02:02:47.433Z,226.19
2023-05-14T02:03:47.512Z,223.45
2023-05-14T02:04:47.475Z,220.65
2023-05-14T02:05:47.527Z,222.13
2023-05-14T02:06:47.545Z,224.91
2023-05-14T02:07:47.585Z,220.84
2023-05-14T02:08:47.592Z,221.12
2023-05-14T02:09:47.638Z,222.83
2023-05-14T02:10:47.695Z,222.86
2023-05-14T02:11:47.706Z,221.61
2023-05-14T02:12:47.741Z,223.20
2023-05-14T02:13:47.773Z,224.33
2023-05-14T02:14:47.824Z,223.13
2023-05-14T02:15:47.872Z,219.94
2023-05-14T02:16:47.902Z,221.69
2023-05-14T02:17:47.980Z,221.17
2023-05-14T02:18:48.029Z,220.01
2023-05-14T02:19:47.950Z,220.68
2023-05-14T02:20:47.987Z,220.18
2023-05-14T02:21:47.998Z,224.11
2023-05-14T02:22:48.048Z,222.10
2023-05-14T02:23:48.094Z,223.40
2023-05-14T02:24:48.124Z,222.66
2023-05-14T02:25:48.148Z,220.91
2023-05-14T02:26:48.197Z,220.80
2023-05-14T02:27:48.230Z,220.83
2023-05-14T02:28:48.298Z,220.89
2023-05-14T02:29:48.335Z,220.01
2023-05-14T02:30:48.369Z,217.86
2023-05-14T02:31:48.428Z,220.98
2023-05-14T02:32:48.535Z,221.24
2023-05-14T02:33:48.478Z,218.71
2023-05-14T02:34:48.559Z,216.74
2023-05-14T02:35:48.552Z,218.24
2023-05-14T02:36:48.556Z,218.17
2023-05-14T02:37:48.612Z,217.26
2023-05-14T02:38:48.638Z,220.47
2023-05-14T02:39:48.673Z,219.52
2023-05-14T02:40:48.707Z,217.95
2023-05-14T02:41:48.767Z,218.32
2023-05-14T02:42:48.802Z,218.00
2023-05-14T02:43:48.827Z,217.12
2023-05-14T02:44:48.855Z,216.83
2023-05-14T02:45:48.907Z,218.54
2023-05-14T02:46:48.996Z,212.54
2023-05-14T02:47:49.009Z,215.16
2023-05-14T02:48:49.037Z,216.51
2023-05-14T02:49:49.076Z,214.39
2023-05-14T02:50:49.109Z,215.34
2023-05-14T02:51:49.134Z,213.11
2023-05-14T02:52:49.187Z,213.35
2023-05-14T02:53:49.211Z,215.00
2023-05-14T02:54:49.235Z,213.06
2023-05-14T02:55:49.259Z,212.14
2023-05-14T02:56:49.289Z,213.30
2023-05-14T02:57:49.334Z,212.81
2023-05-14T02:58:49.331Z,213.32
2023-05-14T02:59:49.366Z,216.75
2023-05-14T03:00:49.459Z,215.04
2023-05-14T03:01:49.449Z,214.92
2023-05-14T03:02:49.628Z,217.26
2023-05-14T03:03:49.500Z,213.18
2023-05-14T03:04:49.517Z,209.54
2023-05-14T03:05:49.528Z,213.73
2023-05-14T03:06:49.579Z,213.92
2023-05-14T03:07:49.604Z,213.77
2023-05-14T03:08:49.637Z,211.19
2023-05-14T03:09:49.692Z,212.87
2023-05-14T03:10:49.743Z,213.56
2023-05-14T03:11:49.772Z,212.52
2023-05-14T03:12:49.814Z,212.01
2023-05-14T03:13:49.869Z,212.78
2023-05-14T03:14:49.887Z,212.99
2023-05-14T03:15:49.940Z,214.02
2023-05-14T03:16:50.010Z,213.62
2023-05-14T03:17:50.043Z,216.09
2023-05-14T03:18:50.070Z,214.80
2023-05-14T03:19:50.028Z,213.63
2023-05-14T03:20:50.088Z,215.94
2023-05-14T03:21:50.126Z,216.44
2023-05-14T03:22:50.172Z,214.48
2023-05-14T03:23:50.211Z,214.09
2023-05-14T03:24:50.222Z,214.24
2023-05-14T03:25:50.237Z,214.57
2023-05-14T03:26:50.289Z,215.62
2023-05-14T03:27:50.284Z,214.32
2023-05-14T03:28:50.317Z,213.75
2023-05-14T03:29:50.340Z,215.64
2023-05-14T03:30:50.391Z,212.53
2023-05-14T03:31:50.394Z,212.82
2023-05-14T03:32:50.521Z,214.58
2023-05-14T03:33:50.471Z,216.74
2023-05-14T03:34:50.508Z,216.48
2023-05-14T03:35:50.567Z,216.16
2023-05-14T03:36:50.615Z,213.71
2023-05-14T03:37:50.634Z,213.89
2023-05-14T03:38:50.681Z,213.74
2023-05-14T03:39:50.736Z,217.14
2023-05-14T03:40:50.769Z,215.97
2023-05-14T03:41:50.847Z,215.84
2023-05-14T03:42:50.843Z,216.20
2023-05-14T03:43:50.864Z,215.45
2023-05-14T03:44:50.893Z,213.94
2023-05-14T03:45:50.945Z,216.30
2023-05-14T03:46:50.998Z,215.77
2023-05-14T03:47:51.089Z,211.41
2023-05-14T03:48:51.101Z,212.22
2023-05-14T03:49:51.085Z,212.87
2023-05-14T03:50:51.129Z,213.69
2023-05-14T03:51:51.163Z,212.77
2023-05-14T03:52:51.185Z,210.13
2023-05-14T03:53:51.214Z,213.57
2023-05-14T03:54:51.266Z,210.18
2023-05-14T03:55:51.365Z,208.45
2023-05-14T03:56:51.320Z,208.72
2023-05-14T03:57:51.362Z,210.04
2023-05-14T03:58:51.378Z,211.94
2023-05-14T03:59:51.394Z,207.92
2023-05-14T04:00:51.434Z,208.40
2023-05-14T04:01:51.454Z,206.44
2023-05-14T04:02:51.693Z,209.15
2023-05-14T04:03:51.717Z,207.32
2023-05-14T04:04:51.703Z,208.91
2023-05-14T04:05:51.620Z,205.32
2023-05-14T04:06:51.653Z,209.76
2023-05-14T04:07:51.681Z,205.80
2023-05-14T04:08:51.701Z,207.61
2023-05-14T04:09:51.734Z,207.62
2023-05-14T04:10:51.788Z,207.84
2023-05-14T04:11:51.804Z,210.52
2023-05-14T04:12:51.852Z,207.63
2023-05-14T04:13:51.899Z,206.92
2023-05-14T04:14:51.931Z,208.52
2023-05-14T04:15:52.012Z,206.82
2023-05-14T04:16:52.017Z,206.86
2023-05-14T04:17:52.128Z,207.21
2023-05-14T04:18:52.166Z,206.44
2023-05-14T04:19:52.120Z,207.80
2023-05-14T04:20:52.122Z,205.26
2023-05-14T04:21:52.175Z,204.54
2023-05-14T04:22:52.213Z,204.86
2023-05-14T04:23:52.276Z,201.61
2023-05-14T04:24:52.309Z,201.48
2023-05-14T04:25:52.368Z,201.18
2023-05-14T04:26:52.405Z,200.38
2023-05-14T04:27:52.462Z,196.34
2023-05-14T04:28:52.495Z,198.19
2023-05-14T04:29:52.539Z,199.09
2023-05-14T04:30:52.577Z,200.36
2023-05-14T04:31:52.691Z,196.03
2023-05-14T04:32:52.825Z,196.26
2023-05-14T04:33:52.727Z,198.06
2023-05-14T04:34:52.763Z,197.95
2023-05-14T04:35:52.809Z,197.20
2023-05-14T04:36:52.858Z,196.67
2023-05-14T04:37:52.880Z,196.51
2023-05-14T04:38:52.917Z,193.91
2023-05-14T04:39:52.948Z,195.28
2023-05-14T04:40:52.973Z,192.89
2023-05-14T04:41:53.023Z,194.24
2023-05-14T04:42:53.044Z,195.14
2023-05-14T04:43:53.104Z,196.22
2023-05-14T04:44:53.132Z,195.08
2023-05-14T04:45:53.329Z,193.59
2023-05-14T04:46:53.216Z,194.26
2023-05-14T04:47:53.291Z,191.64
2023-05-14T04:48:53.291Z,191.69
2023-05-14T04:49:53.333Z,190.52
2023-05-14T04:50:53.397Z,189.85
2023-05-14T04:51:53.453Z,189.44
2023-05-14T04:52:53.487Z,188.69
2023-05-14T04:53:53.541Z,187.49
2023-05-14T04:54:53.578Z,190.21
2023-05-14T04:55:53.637Z,188.54
2023-05-14T04:56:53.668Z,191.41
2023-05-14T04:57:53.731Z,190.74
2023-05-14T04:58:53.758Z,187.64
2023-05-14T04:59:53.843Z,190.23
2023-05-14T05:00:53.898Z,186.13
2023-05-14T05:01:53.923Z,185.19
2023-05-14T05:02:53.984Z,188.04
2023-05-14T05:03:53.998Z,185.04
2023-05-14T05:04:54.001Z,186.85
2023-05-14T05:05:54.103Z,182.46
2023-05-14T05:06:54.083Z,189.60
2023-05-14T05:07:54.138Z,187.05
2023-05-14T05:08:54.217Z,184.79
2023-05-14T05:09:54.221Z,184.69
2023-05-14T05:10:54.278Z,186.66
2023-05-14T05:11:54.296Z,183.85
2023-05-14T05:12:54.336Z,183.67
2023-05-14T05:13:54.358Z,185.84
2023-05-14T05:14:54.410Z,182.02
2023-05-14T05:15:54.480Z,185.42
2023-05-14T05:16:54.479Z,181.29
2023-05-14T05:17:54.633Z,183.48
2023-05-14T05:18:54.586Z,182.66
2023-05-14T05:19:54.640Z,179.98
2023-05-14T05:20:54.671Z,184.06
2023-05-14T05:21:54.681Z,180.91
2023-05-14T05:22:54.731Z,180.53
2023-05-14T05:23:54.783Z,179.55
2023-05-14T05:24:54.840Z,181.71
2023-05-14T05:25:54.889Z,179.97
2023-05-14T05:26:54.919Z,179.31
2023-05-14T05:27:54.936Z,181.09
2023-05-14T05:28:54.951Z,177.82
2023-05-14T05:29:54.980Z,181.64
2023-05-14T05:30:55.010Z,179.65
2023-05-14T05:31:55.162Z,177.52
2023-05-14T05:32:55.110Z,176.54
2023-05-14T05:33:55.136Z,175.00
2023-05-14T05:34:55.161Z,171.46
2023-05-14T05:35:55.219Z,172.09
2023-05-14T05:36:55.260Z,168.62
2023-05-14T05:37:55.320Z,170.19
2023-05-14T05:38:55.372Z,164.55
2023-05-14T05:39:55.425Z,167.40
2023-05-14T05:40:55.508Z,171.37
2023-05-14T05:41:55.483Z,165.21
2023-05-14T05:42:55.532Z,167.32
2023-05-14T05:43:55.569Z,166.93
2023-05-14T05:44:55.613Z,164.26
2023-05-14T05:45:55.652Z,161.31
2023-05-14T05:46:55.838Z,160.73
2023-05-14T05:47:55.771Z,163.65
2023-05-14T05:48:55.776Z,165.36
2023-05-14T05:49:55.794Z,167.01
2023-05-14T05:50:55.849Z,163.36
2023-05-14T05:51:55.890Z,163.02
2023-05-14T05:52:55.902Z,163.35
2023-05-14T05:53:55.984Z,162.65
2023-05-14T05:54:55.993Z,167.64
2023-05-14T05:55:56.028Z,167.29
2023-05-14T05:56:56.049Z,162.12
2023-05-14T05:57:56.059Z,165.53
2023-05-14T05:58:56.094Z,164.73
2023-05-14T05:59:56.143Z,160.50
2023-05-14T06:00:56.170Z,159.88
2023-05-14T06:01:56.280Z,161.15
2023-05-14T06:02:56.321Z,163.00
2023-05-14T06:03:56.287Z,159.87
2023-05-14T06:04:56.379Z,162.10
2023-05-14T06:05:56.420Z,162.06
2023-05-14T06:06:56.533Z,160.09
2023-05-14T06:07:56.438Z,159.38
2023-05-14T06:08:56.589Z,160.72
2023-05-14T06:09:56.632Z,156.90
2023-05-14T06:10:56.640Z,155.29
2023-05-14T06:11:56.655Z,156.73
2023-05-14T06:12:56.719Z,152.93
2023-05-14T06:13:56.669Z,154.73
2023-05-14T06:14:56.788Z,150.00
2023-05-14T06:15:56.734Z,152.04
2023-05-14T06:16:56.933Z,153.75
2023-05-14T06:17:56.917Z,151.59
2023-05-14T06:18:56.870Z,146.61
2023-05-14T06:19:56.960Z,145.57
2023-05-14T06:20:56.884Z,144.22
2023-05-14T06:21:57.028Z,146.55
2023-05-14T06:22:56.999Z,145.04
2023-05-14T06:23:57.060Z,138.49
2023-05-14T06:24:57.152Z,140.89
2023-05-14T06:25:57.356Z,140.44
2023-05-14T06:26:57.148Z,140.86
2023-05-14T06:27:57.204Z,145.92
2023-05-14T06:28:57.363Z,142.06
2023-05-14T06:29:57.481Z,148.66
2023-05-14T06:30:57.458Z,142.95
2023-05-14T06:31:57.533Z,135.28
2023-05-14T06:32:57.422Z,135.16
2023-05-14T06:33:57.583Z,135.99
2023-05-14T06:34:57.540Z,135.96
2023-05-14T06:35:57.487Z,133.25
2023-05-14T06:36:57.625Z,136.02
2023-05-14T06:37:57.572Z,134.33
2023-05-14T06:38:57.581Z,131.08
2023-05-14T06:39:58.002Z,133.24
2023-05-14T06:40:57.804Z,131.82
2023-05-14T06:41:57.738Z,129.43
2023-05-14T06:42:57.743Z,129.09
2023-05-14T06:43:57.771Z,126.86
2023-05-14T06:44:57.830Z,125.01
2023-05-14T06:45:57.949Z,123.76
2023-05-14T06:46:57.909Z,122.83
2023-05-14T06:47:58.094Z,119.58
2023-05-14T06:48:59.534Z,120.97
2023-05-14T06:49:57.994Z,121.64
2023-05-14T06:50:58.182Z,122.42
2023-05-14T06:51:58.154Z,118.99
2023-05-14T06:52:58.138Z,115.93
2023-05-14T06:53:58.296Z,115.44
2023-05-14T06:54:58.236Z,113.26
2023-05-14T06:55:58.287Z,112.25
2023-05-14T06:56:58.342Z,113.65
2023-05-14T06:57:58.295Z,108.09
2023-05-14T06:58:58.326Z,111.90
2023-05-14T06:59:58.430Z,107.48
2023-05-14T07:00:58.539Z,106.59
2023-05-14T07:01:58.751Z,99.25
2023-05-14T07:02:58.495Z,104.07
2023-05-14T07:03:58.606Z,99.81
2023-05-14T07:04:58.564Z,102.15
2023-05-14T07:05:58.599Z,100.75
2023-05-14T07:06:58.622Z,98.24
2023-05-14T07:07:58.675Z,94.82
2023-05-14T07:08:58.711Z,93.49
2023-05-14T07:09:58.732Z,99.76
2023-05-14T07:10:58.931Z,94.39
2023-05-14T07:11:58.803Z,91.62
2023-05-14T07:12:58.854Z,102.97
2023-05-14T07:13:58.851Z,96.96
2023-05-14T07:14:58.878Z,93.62
2023-05-14T07:15:58.921Z,97.22
2023-05-14T07:16:59.015Z,94.00
2023-05-14T07:17:59.017Z,92.38
2023-05-14T07:18:59.067Z,93.86
2023-05-14T07:19:59.037Z,96.16
2023-05-14T07:20:59.221Z,94.33
2023-05-14T07:21:59.188Z,95.90
2023-05-14T07:22:59.115Z,86.89
2023-05-14T07:23:59.128Z,85.31
2023-05-14T07:24:59.156Z,81.64
2023-05-14T07:25:59.166Z,80.95
2023-05-14T07:26:59.293Z,75.15
2023-05-14T07:27:59.220Z,74.23
2023-05-14T07:28:59.264Z,73.51
2023-05-14T07:29:59.290Z,67.95
2023-05-14T07:30:59.397Z,66.85
2023-05-14T07:31:59.342Z,68.28
2023-05-14T07:32:59.395Z,69.36
2023-05-14T07:33:59.504Z,67.49
2023-05-14T07:34:59.375Z,65.12
2023-05-14T07:35:59.393Z,63.26
2023-05-14T07:36:59.416Z,58.18
2023-05-14T07:37:59.457Z,63.52
2023-05-14T07:38:59.490Z,60.45
2023-05-14T07:39:59.508Z,56.69
2023-05-14T07:40:59.471Z,59.05
2023-05-14T07:41:59.586Z,58.78
2023-05-14T07:42:59.448Z,58.01
2023-05-14T07:43:59.482Z,57.42
2023-05-14T07:44:59.506Z,54.37
2023-05-14T07:45:59.563Z,58.70
2023-05-14T07:46:59.732Z,61.44
2023-05-14T07:47:59.906Z,62.34
2023-05-14T07:48:59.670Z,54.74
2023-05-14T07:49:59.831Z,60.20
2023-05-14T07:50:59.719Z,56.66
2023-05-14T07:51:59.790Z,55.10
2023-05-14T07:52:59.765Z,56.96
2023-05-14T07:53:59.918Z,51.70
2023-05-14T07:54:59.827Z,52.45
2023-05-14T07:55:59.882Z,62.51
2023-05-14T07:56:59.904Z,68.04
2023-05-14T07:57:59.947Z,68.19
2023-05-14T07:58:59.939Z,67.65
2023-05-14T08:00:00.010Z,67.55
2023-05-14T08:01:00.033Z,65.68
2023-05-14T08:02:00.195Z,61.07
2023-05-14T08:03:00.385Z,65.16
2023-05-14T08:04:00.332Z,70.24
2023-05-14T08:05:00.215Z,68.78
2023-05-14T08:06:00.165Z,75.15
2023-05-14T08:07:00.175Z,73.31
2023-05-14T08:08:00.157Z,76.71
2023-05-14T08:09:00.257Z,81.72
2023-05-14T08:10:00.348Z,84.03
2023-05-14T08:11:00.445Z,84.99
2023-05-14T08:12:00.270Z,74.19
2023-05-14T08:13:00.244Z,64.00
2023-05-14T08:14:00.415Z,64.61
2023-05-14T08:15:00.304Z,70.07
2023-05-14T08:16:00.317Z,81.75
2023-05-14T08:17:00.536Z,84.44
2023-05-14T08:18:00.435Z,76.98
2023-05-14T08:19:00.428Z,76.58
2023-05-14T08:20:00.390Z,76.51
2023-05-14T08:21:02.197Z,71.60
2023-05-14T08:22:00.323Z,77.36
2023-05-14T08:23:00.327Z,81.71
2023-05-14T08:24:00.313Z,98.64
2023-05-14T08:25:00.375Z,101.03
2023-05-14T08:26:00.359Z,114.24
2023-05-14T08:27:00.367Z,114.62
2023-05-14T08:28:00.397Z,124.74
2023-05-14T08:29:00.305Z,123.96
2023-05-14T08:30:00.336Z,119.42
2023-05-14T08:31:00.458Z,123.91
2023-05-14T08:32:03.857Z,125.87
2023-05-14T08:33:01.383Z,126.32
2023-05-14T08:34:00.345Z,127.22
2023-05-14T08:35:00.298Z,129.59
2023-05-14T08:36:00.327Z,133.98
2023-05-14T08:37:00.443Z,140.11
2023-05-14T08:38:00.290Z,138.69
2023-05-14T08:39:00.301Z,138.51
2023-05-14T08:40:00.303Z,132.66
2023-05-14T08:41:00.224Z,134.94
2023-05-14T08:42:00.260Z,139.03
2023-05-14T08:43:00.296Z,139.77
2023-05-14T08:44:00.365Z,134.33
2023-05-14T08:45:00.468Z,135.31
2023-05-14T08:46:00.408Z,139.06
2023-05-14T08:47:00.501Z,133.77
2023-05-14T08:48:00.661Z,137.40
2023-05-14T08:49:00.523Z,138.73
2023-05-14T08:50:00.611Z,138.89
2023-05-14T08:51:00.567Z,143.40
2023-05-14T08:52:00.655Z,139.74
2023-05-14T08:53:00.664Z,139.17
2023-05-14T08:54:00.725Z,135.23
2023-05-14T08:55:00.688Z,132.50
2023-05-14T08:56:00.767Z,132.98
2023-05-14T08:57:00.801Z,135.07
2023-05-14T08:58:00.788Z,133.48
2023-05-14T08:59:00.836Z,128.61
2023-05-14T09:00:00.883Z,131.70
2023-05-14T09:01:00.928Z,132.96
2023-05-14T09:02:00.992Z,136.61
2023-05-14T09:03:00.995Z,133.16
2023-05-14T09:04:01.109Z,131.28
2023-05-14T09:05:01.007Z,133.52
2023-05-14T09:06:00.994Z,130.71
2023-05-14T09:07:01.024Z,130.21
2023-05-14T09:08:01.049Z,129.35
2023-05-14T09:09:01.042Z,129.06
2023-05-14T09:10:01.064Z,129.09
2023-05-14T09:11:01.054Z,131.31
2023-05-14T09:12:01.087Z,130.62
2023-05-14T09:13:01.206Z,133.63
2023-05-14T09:14:01.154Z,131.10
2023-05-14T09:15:01.182Z,137.49
2023-05-14T09:16:01.282Z,142.80
2023-05-14T09:17:01.248Z,146.26
2023-05-14T09:18:01.315Z,148.75
2023-05-14T09:19:01.321Z,148.27
2023-05-14T09:20:01.379Z,152.61
2023-05-14T09:21:01.340Z,149.06
2023-05-14T09:22:01.361Z,147.93
2023-05-14T09:23:01.393Z,150.65
2023-05-14T09:24:01.407Z,147.95
2023-05-14T09:25:01.501Z,150.65
2023-05-14T09:26:01.496Z,148.50
2023-05-14T09:27:01.529Z,149.71
2023-05-14T09:28:01.519Z,149.09
2023-05-14T09:29:01.550Z,151.70
2023-05-14T09:30:01.552Z,148.32
2023-05-14T09:31:01.596Z,147.60
2023-05-14T09:32:01.690Z,146.53
2023-05-14T09:33:01.737Z,143.97
2023-05-14T09:34:01.679Z,145.28
2023-05-14T09:35:01.691Z,143.76
2023-05-14T09:36:01.707Z,144.28
2023-05-14T09:37:01.754Z,141.91
2023-05-14T09:38:01.727Z,141.56
2023-05-14T09:39:01.766Z,135.49
2023-05-14T09:40:01.760Z,134.38
2023-05-14T09:41:01.845Z,130.54
2023-05-14T09:42:01.833Z,125.25
2023-05-14T09:43:01.908Z,126.71
2023-05-14T09:44:02.408Z,128.75
2023-05-14T09:45:01.994Z,129.40
2023-05-14T09:46:01.961Z,131.92
2023-05-14T09:47:02.038Z,130.84
2023-05-14T09:48:02.116Z,132.31
2023-05-14T09:49:02.063Z,133.16
2023-05-14T09:50:02.067Z,130.12
2023-05-14T09:51:03.344Z,129.57
2023-05-14T09:52:02.235Z,127.54
2023-05-14T09:53:02.248Z,127.14
2023-05-14T09:54:02.234Z,127.83
2023-05-14T09:55:02.269Z,120.25
2023-05-14T09:56:02.284Z,124.87
2023-05-14T09:57:02.295Z,125.74
2023-05-14T09:58:02.302Z,129.25
2023-05-14T09:59:02.310Z,127.47
2023-05-14T10:00:02.320Z,128.66
2023-05-14T10:01:02.326Z,129.22
2023-05-14T10:02:02.338Z,123.26
2023-05-14T10:03:02.431Z,122.40
2023-05-14T10:04:02.400Z,119.46
2023-05-14T10:05:02.411Z,123.27
2023-05-14T10:06:02.420Z,115.49
2023-05-14T10:07:02.439Z,122.55
2023-05-14T10:08:02.443Z,124.52
2023-05-14T10:09:02.480Z,121.65
2023-05-14T10:10:02.533Z,123.81
2023-05-14T10:11:02.586Z,118.28
2023-05-14T10:12:02.654Z,113.09
2023-05-14T10:13:02.631Z,113.30
2023-05-14T10:14:02.653Z,108.77
2023-05-14T10:15:02.651Z,109.88
2023-05-14T10:16:02.698Z,112.05
2023-05-14T10:17:02.724Z,111.01
2023-05-14T10:18:02.720Z,110.77
2023-05-14T10:19:02.700Z,109.78
2023-05-14T10:20:02.709Z,111.72
2023-05-14T10:21:02.723Z,110.19
2023-05-14T10:22:02.761Z,108.76
2023-05-14T10:23:02.801Z,103.24
2023-05-14T10:24:02.834Z,103.30
2023-05-14T10:25:02.884Z,103.33
2023-05-14T10:26:02.929Z,101.77
2023-05-14T10:27:02.913Z,98.30
2023-05-14T10:28:02.917Z,99.32
2023-05-14T10:29:03.059Z,100.87
2023-05-14T10:30:03.023Z,98.50
2023-05-14T10:31:03.072Z,98.78
2023-05-14T10:32:03.009Z,98.11
2023-05-14T10:33:03.130Z,96.55
2023-05-14T10:34:03.046Z,95.83
2023-05-14T10:35:03.159Z,92.62
2023-05-14T10:36:03.171Z,96.97
2023-05-14T10:37:03.151Z,96.63
2023-05-14T10:38:03.217Z,94.95
2023-05-14T10:39:03.229Z,85.12
2023-05-14T10:40:03.250Z,90.10
2023-05-14T10:41:03.242Z,87.23
2023-05-14T10:42:03.287Z,92.80
2023-05-14T10:43:03.336Z,92.75
2023-05-14T10:44:03.363Z,89.81
2023-05-14T10:45:03.497Z,89.72
2023-05-14T10:46:03.572Z,92.74
2023-05-14T10:47:03.767Z,94.24
2023-05-14T10:48:03.642Z,97.28
2023-05-14T10:49:03.632Z,91.74
2023-05-14T10:50:03.649Z,94.79
2023-05-14T10:51:03.696Z,86.66
2023-05-14T10:52:03.654Z,83.26
2023-05-14T10:53:03.697Z,85.31
2023-05-14T10:54:03.721Z,89.61
2023-05-14T10:55:04.045Z,96.12
2023-05-14T10:56:03.737Z,92.92
2023-05-14T10:57:03.749Z,89.30
2023-05-14T10:58:03.750Z,94.90
2023-05-14T10:59:03.743Z,89.17
2023-05-14T11:00:03.752Z,92.44
2023-05-14T11:01:03.783Z,89.08
2023-05-14T11:02:03.849Z,90.07
2023-05-14T11:03:03.864Z,88.21
2023-05-14T11:04:03.835Z,90.04
2023-05-14T11:05:03.864Z,86.49
2023-05-14T11:06:03.820Z,84.66
2023-05-14T11:07:03.873Z,81.08
2023-05-14T11:08:03.951Z,83.82
2023-05-14T11:09:03.946Z,85.83
2023-05-14T11:10:03.997Z,86.73
2023-05-14T11:11:04.065Z,86.21
2023-05-14T11:12:04.100Z,85.28
2023-05-14T11:13:04.140Z,92.09
2023-05-14T11:14:04.195Z,86.46
2023-05-14T11:15:04.220Z,86.68
2023-05-14T11:16:11.981Z,90.41
2023-05-14T11:17:05.228Z,90.54
2023-05-14T11:18:04.247Z,84.92
2023-05-14T11:19:04.270Z,84.94
2023-05-14T11:20:04.205Z,93.17
2023-05-14T11:21:04.235Z,91.06
2023-05-14T11:22:04.179Z,90.70
2023-05-14T11:23:04.179Z,86.72
2023-05-14T11:24:04.172Z,88.32
2023-05-14T11:25:04.155Z,89.67
2023-05-14T11:26:04.219Z,85.97
2023-05-14T11:27:04.159Z,87.96
2023-05-14T11:28:04.150Z,88.96
2023-05-14T11:29:04.160Z,89.19
2023-05-14T11:30:04.141Z,86.16
2023-05-14T11:31:04.137Z,85.00
2023-05-14T11:32:04.303Z,83.47
2023-05-14T11:33:04.242Z,84.13
2023-05-14T11:34:04.237Z,85.07
2023-05-14T11:35:04.279Z,85.24
2023-05-14T11:36:04.319Z,86.01
2023-05-14T11:37:04.366Z,80.70
2023-05-14T11:38:04.428Z,85.98
2023-05-14T11:39:04.403Z,88.22
2023-05-14T11:40:04.441Z,88.89
2023-05-14T11:41:04.457Z,85.28
2023-05-14T11:42:04.485Z,82.47
2023-05-14T11:43:04.508Z,80.06
2023-05-14T11:44:04.584Z,86.90
2023-05-14T11:45:04.620Z,79.74
2023-05-14T11:46:04.648Z,83.06
2023-05-14T11:47:04.720Z,84.56
2023-05-14T11:48:04.802Z,79.68
2023-05-14T11:49:04.830Z,81.16
2023-05-14T11:50:04.957Z,82.48
2023-05-14T11:51:04.855Z,81.59
2023-05-14T11:52:04.882Z,83.59
2023-05-14T11:53:04.917Z,82.26
2023-05-14T11:54:04.956Z,82.91
2023-05-14T11:55:04.991Z,71.65
2023-05-14T11:56:06.082Z,70.09
2023-05-14T11:57:05.243Z,82.34
2023-05-14T11:58:05.260Z,74.77
2023-05-14T11:59:05.310Z,74.24
2023-05-14T12:00:05.339Z,72.76
2023-05-14T12:01:05.350Z,68.98
2023-05-14T12:02:05.433Z,72.47
2023-05-14T12:04:05.535Z,73.98
2023-05-14T12:05:05.489Z,71.64
2023-05-14T12:06:05.547Z,67.33
2023-05-14T12:07:05.565Z,67.47
2023-05-14T12:08:05.599Z,61.70
2023-05-14T12:09:05.638Z,62.60
2023-05-14T12:10:05.665Z,74.66
2023-05-14T12:11:05.675Z,65.69
2023-05-14T12:12:05.724Z,60.34
2023-05-14T12:13:05.774Z,58.70
2023-05-14T12:14:05.775Z,65.35
2023-05-14T12:15:05.845Z,66.47
2023-05-14T12:16:05.920Z,62.43
2023-05-14T12:17:05.943Z,63.04
2023-05-14T12:18:16.904Z,63.95
2023-05-14T12:19:06.979Z,64.39
2023-05-14T12:20:05.919Z,65.87
2023-05-14T12:21:05.938Z,66.72
2023-05-14T12:22:05.885Z,70.29
2023-05-14T12:23:05.893Z,72.03
2023-05-14T12:24:05.900Z,75.31
2023-05-14T12:25:05.872Z,78.88
2023-05-14T12:26:05.869Z,79.97
2023-05-14T12:27:05.867Z,81.04
2023-05-14T12:28:05.877Z,80.86
2023-05-14T12:29:05.837Z,80.52
2023-05-14T12:30:20.705Z,75.62
2023-05-14T12:31:07.015Z,75.84
2023-05-14T12:32:05.833Z,76.89
2023-05-14T12:33:05.902Z,79.10
2023-05-14T12:34:05.833Z,81.65
2023-05-14T12:35:05.828Z,82.77
2023-05-14T12:36:20.549Z,77.33
2023-05-14T12:37:06.808Z,77.49